Time;durP1;ratioP1;P1;durP2;ratioP2;P2;SDS_P1;SDS_P2;PMS_P1;PMS_P2;Temp;Humidity;BMP_temperature;BMP_pressure;BME280_temperature;BME280_humidity;BME280_pressure;Samples;Min_cycle;Max_cycle;Signal;HPM_P1;HPM_P2
2021/07/07 19:58:43;;;;;;;8.15;4.15;;;;;;;29.41;42.34;100328.42;1812429;77;21038;-68
2021/07/07 20:01:10;;;;;;;4.45;3.98;;;;;;;29.39;42.45;100334.73;1823334;77;21516;-67
2021/07/07 20:03:43;;;;;;;6.15;3.80;;;;;;;29.35;42.53;100333.66;1790710;77;21137;-68
2021/07/07 20:06:10;;;;;;;4.50;3.30;;;;;;;29.31;42.59;100329.84;1841977;77;21076;-68
2021/07/07 20:08:37;;;;;;;5.95;3.55;;;;;;;29.27;42.75;100339.16;1799732;77;21040;-67
2021/07/07 20:11:04;;;;;;;4.05;3.62;;;;;;;29.24;42.82;100341.63;1818235;77;21098;-67
2021/07/07 20:13:31;;;;;;;6.35;3.90;;;;;;;29.20;42.87;100345.45;1808992;78;21021;-68
2021/07/07 20:15:59;;;;;;;5.28;3.50;;;;;;;29.16;42.95;100342.45;1809539;79;21161;-68
2021/07/07 20:18:25;;;;;;;4.22;3.12;;;;;;;29.13;42.99;100343.55;1825284;77;21070;-68
2021/07/07 20:20:57;;;;;;;6.33;3.35;;;;;;;29.10;42.95;100344.09;1830269;77;21041;-68
2021/07/07 20:23:20;;;;;;;4.85;3.60;;;;;;;29.04;43.02;100333.70;1813782;77;21021;-69
2021/07/07 20:25:46;;;;;;;5.58;3.83;;;;;;;29.03;43.12;100338.89;1814902;77;21013;-67
2021/07/07 20:28:12;;;;;;;8.05;4.37;;;;;;;28.99;43.25;100350.95;1812895;77;21493;-68
2021/07/07 20:30:39;;;;;;;7.85;4.28;;;;;;;28.96;43.38;100343.85;1815189;77;21041;-68
2021/07/07 20:33:05;;;;;;;5.37;4.35;;;;;;;28.92;43.52;100353.15;1811323;77;21138;-68
2021/07/07 20:35:32;;;;;;;6.45;4.15;;;;;;;28.89;43.66;100352.32;1783167;77;21011;-68
2021/07/07 20:37:58;;;;;;;5.60;3.95;;;;;;;28.86;43.75;100350.16;1795418;79;21013;-68
2021/07/07 20:40:25;;;;;;;6.45;4.00;;;;;;;28.82;43.85;100351.80;1809156;77;21129;-68
2021/07/07 20:42:51;;;;;;;5.53;4.20;;;;;;;28.80;44.03;100350.70;1819429;77;21069;-68
2021/07/07 20:45:18;;;;;;;5.83;3.75;;;;;;;28.77;44.22;100353.97;1793891;77;21014;-69
2021/07/07 20:47:45;;;;;;;7.92;5.00;;;;;;;28.74;44.32;100346.87;1807307;77;21110;-68
2021/07/07 20:50:12;;;;;;;9.83;4.60;;;;;;;28.72;44.39;100355.89;1781619;78;21331;-68
2021/07/07 20:52:39;;;;;;;7.53;4.83;;;;;;;28.68;44.42;100361.08;1797086;78;21043;-67
2021/07/07 20:55:07;;;;;;;7.80;4.80;;;;;;;28.64;44.48;100357.26;1794098;77;21037;-67
2021/07/07 20:57:42;;;;;;;8.60;5.08;;;;;;;28.62;44.53;100359.45;1811352;78;21030;-69
2021/07/07 21:00:02;;;;;;;5.15;4.42;;;;;;;28.59;44.69;100360.02;1815116;77;21749;-68
2021/07/07 21:02:28;;;;;;;6.62;4.55;;;;;;;28.56;44.85;100360.55;1829935;77;21537;-68
2021/07/07 21:04:55;;;;;;;7.25;4.65;;;;;;;28.54;45.10;100361.37;1822305;77;21135;-67
2021/07/07 21:07:21;;;;;;;9.48;4.62;;;;;;;28.50;45.18;100361.61;1771486;79;21110;-67
2021/07/07 21:09:48;;;;;;;10.48;5.90;;;;;;;28.49;45.29;100365.42;1803546;78;21539;-66
2021/07/07 21:12:15;;;;;;;10.10;5.28;;;;;;;28.46;45.39;100359.16;1810942;78;20975;-67
2021/07/07 21:14:41;;;;;;;9.03;5.28;;;;;;;28.43;45.49;100364.59;1807655;78;21097;-69
2021/07/07 21:17:09;;;;;;;9.40;4.90;;;;;;;28.41;45.57;100368.98;1804933;78;21075;-67
2021/07/07 21:19:37;;;;;;;8.60;5.08;;;;;;;28.38;45.70;100365.42;1817652;77;20982;-69
2021/07/07 21:22:04;;;;;;;8.08;5.53;;;;;;;28.36;45.96;100368.97;1810109;77;21021;-67
2021/07/07 21:24:33;;;;;;;7.78;4.85;;;;;;;28.33;46.21;100374.16;1769906;79;22086;-67
2021/07/07 21:26:59;;;;;;;7.70;5.30;;;;;;;28.30;46.39;100378.78;1803523;78;21061;-68
2021/07/07 21:29:26;;;;;;;9.33;5.60;;;;;;;28.26;46.53;100377.16;1834167;77;23293;-67
2021/07/07 21:31:56;;;;;;;11.33;5.40;;;;;;;28.23;46.66;100379.06;1812253;77;21063;-67
2021/07/07 21:34:24;;;;;;;5.78;4.80;;;;;;;28.21;46.74;100378.51;1816404;77;21038;-67
2021/07/07 21:36:50;;;;;;;12.98;5.67;;;;;;;28.19;46.83;100377.96;1799293;77;20978;-66
2021/07/07 21:41:21;;;;;;;7.17;5.28;;;;;;;28.18;47.20;100379.03;1870140;76;22615;-68
2021/07/07 21:43:48;;;;;;;11.63;5.70;;;;;;;28.07;47.39;100380.09;1826293;78;20997;-68
2021/07/07 21:46:14;;;;;;;8.00;5.08;;;;;;;28.04;47.56;100380.91;1824982;78;21181;-67
2021/07/07 21:48:41;;;;;;;10.43;5.53;;;;;;;28.04;47.50;100378.73;1826141;78;21027;-66
2021/07/07 21:51:08;;;;;;;10.28;5.87;;;;;;;28.02;47.54;100376.82;1826346;78;20977;-67
2021/07/07 21:53:34;;;;;;;8.55;5.45;;;;;;;27.99;47.70;100382.80;1814226;78;21060;-67
2021/07/07 21:56:03;;;;;;;9.10;5.70;;;;;;;27.96;47.85;100377.34;1808001;78;21049;-67
2021/07/07 21:58:31;;;;;;;10.18;6.08;;;;;;;27.94;47.91;100377.34;1826401;78;22921;-68
2021/07/07 22:00:57;;;;;;;8.80;5.83;;;;;;;27.92;48.02;100382.26;1826269;78;21070;-67
2021/07/07 22:03:24;;;;;;;12.40;6.15;;;;;;;27.91;48.09;100383.33;1825171;78;21001;-67
2021/07/07 22:05:52;;;;;;;7.83;5.42;;;;;;;27.89;48.12;100386.88;1826173;78;21021;-67
2021/07/07 22:08:19;;;;;;;8.65;6.08;;;;;;;27.87;48.18;100391.20;1826616;78;20994;-68
2021/07/07 22:10:45;;;;;;;11.38;6.58;;;;;;;27.85;48.30;100392.02;1826366;78;21035;-67
2021/07/07 22:13:12;;;;;;;10.78;6.35;;;;;;;27.84;48.35;100386.30;1826380;78;21021;-68
2021/07/07 22:15:38;;;;;;;10.45;6.20;;;;;;;27.82;48.45;100391.20;1795289;78;20966;-68
2021/07/07 22:18:06;;;;;;;11.88;5.92;;;;;;;27.79;48.54;100396.63;1826225;78;21037;-67
2021/07/07 22:20:33;;;;;;;11.30;5.80;;;;;;;27.78;48.58;100398.29;1825015;78;20986;-67
2021/07/07 22:22:59;;;;;;;9.35;6.37;;;;;;;27.76;48.61;100399.09;1826302;78;21180;-66
2021/07/07 22:25:26;;;;;;;9.55;6.87;;;;;;;27.74;48.65;100397.16;1826535;78;21053;-67
2021/07/07 22:27:54;;;;;;;8.18;6.28;;;;;;;27.72;48.66;100400.17;1826266;77;21033;-68
2021/07/07 22:30:24;;;;;;;9.88;5.58;;;;;;;27.71;48.69;100401.80;1826379;78;21006;-67
2021/07/07 22:32:52;;;;;;;9.98;7.20;;;;;;;27.68;48.79;100403.68;1826556;78;21470;-67
2021/07/07 22:35:19;;;;;;;14.10;6.30;;;;;;;27.66;48.88;100405.30;1826317;78;21631;-67
2021/07/07 22:37:46;;;;;;;10.32;6.45;;;;;;;27.62;49.03;100407.77;1825364;78;21025;-67
2021/07/07 22:40:14;;;;;;;13.22;6.50;;;;;;;27.60;49.09;100409.94;1796717;78;21009;-68
2021/07/07 22:42:40;;;;;;;9.40;5.87;;;;;;;27.57;49.14;100405.00;1802140;79;21122;-67
2021/07/07 22:45:08;;;;;;;10.30;6.15;;;;;;;27.57;49.21;100417.28;1793201;79;21025;-67
2021/07/07 22:47:37;;;;;;;10.05;6.12;;;;;;;27.54;49.28;100420.53;1815001;79;21132;-66
2021/07/07 22:50:08;;;;;;;9.50;6.62;;;;;;;27.53;49.43;100418.91;1815081;79;21001;-68
2021/07/07 22:52:37;;;;;;;8.75;6.20;;;;;;;27.51;49.51;100416.17;1814364;78;21041;-67
2021/07/07 22:55:08;;;;;;;8.78;6.83;;;;;;;27.48;49.52;100419.41;1805304;79;21115;-66
2021/07/07 22:57:37;;;;;;;10.35;6.80;;;;;;;27.45;49.59;100420.78;1793711;79;20986;-67
2021/07/07 23:00:11;;;;;;;10.72;5.72;;;;;;;27.43;49.63;100421.58;1807571;78;21135;-66
2021/07/07 23:02:38;;;;;;;7.87;6.30;;;;;;;27.41;49.68;100424.57;1797718;79;21013;-66
2021/07/07 23:05:07;;;;;;;11.33;6.92;;;;;;;27.38;49.73;100422.91;1809518;79;21092;-65
2021/07/07 23:07:34;;;;;;;9.63;6.03;;;;;;;27.36;49.80;100427.80;1778483;78;21514;-66
2021/07/07 23:10:03;;;;;;;10.30;6.22;;;;;;;27.34;49.87;100424.52;1806813;78;21033;-65
2021/07/07 23:12:30;;;;;;;7.40;6.50;;;;;;;27.30;49.95;100422.05;1789407;79;21088;-66
2021/07/07 23:14:58;;;;;;;10.32;6.17;;;;;;;27.29;50.05;100424.48;1804026;79;21040;-66
2021/07/07 23:17:26;;;;;;;10.85;6.92;;;;;;;27.28;50.16;100433.76;1786938;78;21088;-67
2021/07/07 23:19:52;;;;;;;8.43;6.00;;;;;;;27.26;50.18;100429.38;1814390;79;21494;-65
2021/07/07 23:22:20;;;;;;;10.70;6.65;;;;;;;27.24;50.24;100434.27;1814495;78;21041;-66
2021/07/07 23:24:48;;;;;;;9.45;6.58;;;;;;;27.21;50.40;100432.02;1814565;78;21867;-67
2021/07/07 23:27:14;;;;;;;10.30;6.67;;;;;;;27.20;50.43;100442.67;1814346;79;21030;-67
2021/07/07 23:29:41;;;;;;;6.75;6.00;;;;;;;27.19;50.54;100444.29;1807667;79;20982;-67
2021/07/07 23:32:08;;;;;;;8.43;6.03;;;;;;;27.16;50.62;100444.80;1812667;79;21010;-67
2021/07/07 23:34:34;;;;;;;11.73;6.55;;;;;;;27.14;50.71;100445.60;1786402;79;21542;-66
2021/07/07 23:37:03;;;;;;;7.22;5.85;;;;;;;27.13;50.78;100438.52;1814510;78;21057;-68
2021/07/07 23:39:29;;;;;;;9.28;6.58;;;;;;;27.12;50.82;100446.41;1812816;79;21001;-66
2021/07/07 23:41:56;;;;;;;11.00;6.03;;;;;;;27.10;50.88;100443.97;1812231;79;21569;-66
2021/07/07 23:44:24;;;;;;;9.50;6.42;;;;;;;27.07;50.88;100449.92;1783682;79;21085;-67
2021/07/07 23:46:50;;;;;;;8.50;6.00;;;;;;;27.05;50.97;100451.55;1792568;79;20997;-66
2021/07/07 23:49:17;;;;;;;9.20;5.85;;;;;;;27.04;51.01;100455.89;1779654;79;21128;-67
2021/07/07 23:51:44;;;;;;;8.00;5.80;;;;;;;27.03;50.99;100458.36;1810912;79;21065;-66
2021/07/07 23:54:10;;;;;;;8.63;5.95;;;;;;;27.01;51.07;100456.43;1814503;79;20967;-66
2021/07/07 23:56:37;;;;;;;7.47;5.83;;;;;;;26.99;51.22;100449.05;1808860;79;21006;-67
2021/07/07 23:59:03;;;;;;;7.50;5.65;;;;;;;26.98;51.27;100448.76;1789815;79;21045;-66
